createdAt,value
2022-12-23T00:01:24.483Z,1.40
2022-12-23T00:03:53.265Z,1.20
2022-12-23T00:06:22.451Z,1.30
2022-12-23T00:08:57.993Z,1.30
2022-12-23T00:11:28.745Z,1.60
2022-12-23T00:14:21.051Z,1.67
2022-12-23T00:16:51.574Z,1.43
2022-12-23T00:19:20.334Z,1.87
2022-12-23T00:21:49.287Z,1.83
2022-12-23T00:24:17.868Z,1.97
2022-12-23T00:26:47.797Z,2.20
2022-12-23T00:29:16.402Z,2.00
2022-12-23T00:31:45.097Z,2.53
2022-12-23T00:34:13.930Z,2.43
2022-12-23T00:36:42.557Z,2.77
2022-12-23T00:39:31.260Z,2.50
2022-12-23T00:42:18.998Z,3.00
2022-12-23T00:44:47.660Z,2.90
2022-12-23T00:47:30.152Z,3.03
2022-12-23T00:49:58.722Z,3.17
2022-12-23T00:52:27.412Z,3.57
2022-12-23T00:54:56.008Z,3.47
2022-12-23T00:57:26.022Z,4.00
2022-12-23T00:59:54.623Z,3.73
2022-12-23T01:02:46.462Z,4.20
2022-12-23T01:05:33.008Z,4.70
2022-12-23T01:08:01.542Z,4.80
2022-12-23T01:10:30.150Z,5.40
2022-12-23T01:13:00.025Z,5.63
2022-12-23T01:15:28.601Z,5.40
2022-12-23T01:17:57.200Z,5.20
2022-12-23T01:20:26.009Z,4.87
2022-12-23T01:22:54.518Z,5.40
2022-12-23T01:25:23.067Z,5.00
2022-12-23T01:27:51.604Z,5.63
2022-12-23T01:30:21.656Z,4.80
2022-12-23T01:32:50.215Z,4.60
2022-12-23T01:35:18.829Z,4.67
2022-12-23T01:37:47.359Z,4.23
2022-12-23T01:40:15.912Z,5.03
2022-12-23T01:42:43.524Z,4.90
2022-12-23T01:45:16.143Z,5.10
2022-12-23T01:47:47.696Z,5.03
2022-12-23T01:50:19.267Z,5.30
2022-12-23T01:52:49.593Z,4.83
2022-12-23T01:55:20.600Z,5.43
2022-12-23T01:57:50.048Z,5.30
2022-12-23T02:00:36.472Z,5.43
2022-12-23T02:03:24.159Z,5.73
2022-12-23T02:05:53.247Z,4.83
2022-12-23T02:08:39.539Z,4.93
2022-12-23T02:11:24.012Z,4.73
2022-12-23T02:14:26.394Z,4.17
2022-12-23T02:17:01.289Z,3.60
2022-12-23T02:19:37.413Z,3.43
2022-12-23T02:22:15.790Z,3.80
2022-12-23T02:24:59.401Z,3.37
2022-12-23T02:27:29.905Z,3.30
2022-12-23T02:30:22.217Z,2.90
2022-12-23T02:33:00.050Z,2.70
2022-12-23T02:35:32.071Z,3.13
2022-12-23T02:38:06.233Z,2.73
2022-12-23T02:40:37.629Z,2.90
2022-12-23T02:43:07.292Z,2.70
2022-12-23T02:45:38.231Z,3.00
2022-12-23T02:48:10.363Z,2.83
2022-12-23T02:50:40.253Z,3.30
2022-12-23T02:53:11.762Z,3.03
2022-12-23T02:55:42.020Z,3.50
2022-12-23T02:58:12.930Z,2.83
2022-12-23T03:00:42.567Z,3.40
2022-12-23T03:03:12.623Z,3.20
2022-12-23T03:05:42.741Z,3.07
2022-12-23T03:08:14.547Z,2.90
2022-12-23T03:10:46.650Z,3.03
2022-12-23T03:13:20.096Z,2.63
2022-12-23T03:15:52.658Z,2.87
2022-12-23T03:18:25.294Z,2.40
2022-12-23T03:20:55.984Z,2.50
2022-12-23T03:23:25.935Z,2.50
2022-12-23T03:25:59.832Z,2.60
2022-12-23T03:28:33.246Z,2.60
2022-12-23T03:31:04.204Z,2.50
2022-12-23T03:33:35.864Z,2.70
2022-12-23T03:36:11.821Z,3.00
2022-12-23T03:38:42.058Z,3.30
2022-12-23T03:41:12.665Z,3.03
2022-12-23T03:43:48.513Z,2.90
2022-12-23T03:46:22.431Z,2.73
2022-12-23T03:48:54.713Z,2.60
2022-12-23T03:51:25.395Z,2.40
2022-12-23T03:53:56.130Z,2.83
2022-12-23T03:56:26.669Z,2.80
2022-12-23T03:58:57.808Z,2.30
2022-12-23T04:01:33.310Z,2.43
2022-12-23T04:04:05.305Z,2.43
2022-12-23T04:06:37.098Z,2.50
2022-12-23T04:09:07.101Z,2.20
2022-12-23T04:11:36.291Z,2.07
2022-12-23T04:14:04.941Z,1.90
2022-12-23T04:16:34.207Z,1.90
2022-12-23T04:19:04.199Z,2.30
2022-12-23T04:21:32.865Z,2.10
2022-12-23T04:24:01.373Z,2.00
2022-12-23T04:26:30.120Z,1.93
2022-12-23T04:28:58.736Z,2.40
2022-12-23T04:31:27.334Z,1.63
2022-12-23T04:33:55.967Z,1.70
2022-12-23T04:36:25.909Z,2.17
2022-12-23T04:38:54.455Z,1.90
2022-12-23T04:41:24.263Z,2.00
2022-12-23T04:43:53.495Z,2.10
2022-12-23T04:46:22.311Z,2.63
2022-12-23T04:48:50.967Z,2.50
2022-12-23T04:51:19.485Z,2.57
2022-12-23T04:53:49.364Z,2.40
2022-12-23T04:56:17.940Z,2.80
2022-12-23T04:58:46.504Z,3.00
2022-12-23T05:01:15.172Z,2.70
2022-12-23T05:03:43.948Z,2.60
2022-12-23T05:06:12.496Z,2.50
2022-12-23T05:08:41.109Z,2.43
2022-12-23T05:11:10.997Z,2.83
2022-12-23T05:13:39.518Z,2.10
2022-12-23T05:16:08.563Z,2.80
2022-12-23T05:18:37.152Z,2.73
2022-12-23T05:21:05.933Z,3.40
2022-12-23T05:23:34.489Z,3.43
2022-12-23T05:26:03.044Z,3.80
2022-12-23T05:28:32.971Z,3.70
2022-12-23T05:31:02.123Z,3.60
2022-12-23T05:33:30.986Z,3.50
2022-12-23T05:35:59.604Z,3.43
2022-12-23T05:38:28.427Z,3.47
2022-12-23T05:40:57.019Z,3.77
2022-12-23T05:43:25.708Z,3.20
2022-12-23T05:45:55.713Z,3.53
2022-12-23T05:48:24.540Z,2.90
2022-12-23T05:50:53.715Z,2.70
2022-12-23T05:53:23.885Z,2.90
2022-12-23T05:55:52.449Z,2.97
2022-12-23T05:58:21.062Z,3.00
2022-12-23T06:00:49.617Z,3.13
2022-12-23T06:03:19.618Z,3.30
2022-12-23T06:05:51.822Z,3.50
2022-12-23T06:08:20.528Z,3.03
2022-12-23T06:10:49.163Z,3.00
2022-12-23T06:13:17.799Z,2.80
2022-12-23T06:15:46.378Z,2.97
2022-12-23T06:18:14.929Z,3.20
2022-12-23T06:20:46.989Z,3.60
2022-12-23T06:23:15.541Z,3.80
2022-12-23T06:25:44.141Z,3.67
2022-12-23T06:28:12.742Z,3.53
2022-12-23T06:30:41.326Z,3.47
2022-12-23T06:33:09.889Z,3.27
2022-12-23T06:35:38.461Z,3.30
2022-12-23T06:38:11.986Z,3.20
2022-12-23T06:40:41.130Z,2.70
2022-12-23T06:43:10.867Z,2.77
2022-12-23T06:45:39.440Z,3.10
2022-12-23T06:48:08.517Z,3.17
2022-12-23T06:50:37.092Z,4.37
2022-12-23T06:53:05.731Z,3.33
2022-12-23T06:55:35.623Z,3.80
2022-12-23T06:58:04.183Z,3.70
2022-12-23T07:00:32.861Z,3.27
2022-12-23T07:03:01.570Z,3.67
2022-12-23T07:05:36.701Z,4.97
2022-12-23T07:08:06.174Z,4.50
2022-12-23T07:10:36.662Z,4.50
2022-12-23T07:13:05.290Z,4.23
2022-12-23T07:15:33.809Z,4.30
2022-12-23T07:18:02.430Z,3.70
2022-12-23T07:20:31.085Z,3.90
2022-12-23T07:22:59.695Z,3.53
2022-12-23T07:25:28.366Z,3.80
2022-12-23T07:27:58.424Z,3.43
2022-12-23T07:30:27.066Z,3.27
2022-12-23T07:32:55.689Z,3.10
2022-12-23T07:35:24.270Z,2.63
2022-12-23T07:37:54.981Z,2.50
2022-12-23T07:40:23.626Z,2.73
2022-12-23T07:42:52.529Z,2.13
2022-12-23T07:45:22.525Z,2.43
2022-12-23T07:47:54.347Z,2.47
2022-12-23T07:50:23.444Z,2.80
2022-12-23T07:52:52.054Z,3.33
2022-12-23T07:55:21.002Z,3.63
2022-12-23T07:57:50.007Z,4.00
2022-12-23T08:00:19.170Z,3.30
2022-12-23T08:02:49.796Z,2.97
2022-12-23T08:05:18.791Z,2.80
2022-12-23T08:07:49.774Z,2.67
2022-12-23T08:10:18.356Z,2.83
2022-12-23T08:12:47.395Z,2.60
2022-12-23T08:15:16.167Z,2.30
2022-12-23T08:17:44.743Z,2.27
2022-12-23T08:20:14.864Z,2.20
2022-12-23T08:22:43.429Z,2.40
2022-12-23T08:25:11.973Z,2.10
2022-12-23T08:27:40.552Z,1.90
2022-12-23T08:30:09.640Z,1.83
2022-12-23T08:32:38.217Z,2.30
2022-12-23T08:35:07.672Z,1.93
2022-12-23T08:37:37.574Z,1.60
2022-12-23T08:40:06.541Z,1.70
2022-12-23T08:42:35.111Z,2.10
2022-12-23T08:45:03.786Z,1.70
2022-12-23T08:47:32.339Z,1.90
2022-12-23T08:50:00.872Z,1.60
2022-12-23T08:52:29.651Z,2.03
2022-12-23T08:54:59.524Z,1.60
2022-12-23T08:57:28.076Z,1.40
2022-12-23T08:59:56.654Z,1.67
2022-12-23T09:02:25.315Z,1.50
2022-12-23T09:04:53.950Z,1.50
2022-12-23T09:07:22.540Z,1.47
2022-12-23T09:09:51.152Z,1.67
2022-12-23T09:12:21.087Z,1.50
2022-12-23T09:14:49.611Z,1.50
2022-12-23T09:17:18.606Z,1.60
2022-12-23T09:19:52.397Z,1.33
2022-12-23T09:22:21.679Z,1.33
2022-12-23T09:24:50.221Z,1.50
2022-12-23T09:27:18.777Z,1.50
2022-12-23T09:29:48.708Z,1.40
2022-12-23T09:32:17.296Z,1.40
2022-12-23T09:34:45.892Z,1.40
2022-12-23T09:37:16.582Z,1.07
2022-12-23T09:39:45.174Z,1.33
2022-12-23T09:42:18.704Z,1.00
2022-12-23T09:44:54.278Z,1.20
2022-12-23T09:47:24.349Z,1.10
2022-12-23T09:49:55.034Z,1.27
2022-12-23T09:52:26.194Z,1.00
2022-12-23T09:54:55.725Z,1.10
2022-12-23T09:57:29.935Z,1.23
2022-12-23T10:00:03.912Z,1.00
2022-12-23T10:02:37.662Z,1.10
2022-12-23T10:05:10.865Z,1.70
2022-12-23T10:07:41.905Z,1.20
2022-12-23T10:10:26.878Z,1.20
2022-12-23T10:12:55.708Z,1.30
2022-12-23T10:15:27.670Z,1.20
2022-12-23T10:17:58.138Z,1.17
2022-12-23T10:20:31.704Z,1.10
2022-12-23T10:23:01.341Z,1.13
2022-12-23T10:25:31.931Z,1.30
2022-12-23T10:28:00.500Z,1.20
2022-12-23T10:30:57.158Z,1.50
2022-12-23T10:33:24.068Z,1.20
2022-12-23T10:35:58.584Z,1.20
2022-12-23T10:38:34.526Z,1.20
2022-12-23T10:41:09.659Z,1.00
2022-12-23T10:43:42.411Z,1.00
2022-12-23T10:46:19.478Z,1.07
2022-12-23T10:48:52.848Z,1.10
2022-12-23T10:51:22.933Z,1.47
2022-12-23T10:53:54.135Z,1.40
2022-12-23T10:56:22.905Z,1.27
2022-12-23T10:58:53.011Z,1.30
2022-12-23T11:01:27.069Z,1.40
2022-12-23T11:04:01.244Z,1.60
2022-12-23T11:06:36.848Z,1.43
2022-12-23T11:09:07.286Z,1.50
2022-12-23T11:11:54.180Z,1.27
2022-12-23T11:14:33.110Z,1.50
2022-12-23T11:17:03.035Z,1.27
2022-12-23T11:19:31.592Z,1.80
2022-12-23T11:22:00.923Z,1.90
2022-12-23T11:24:34.433Z,2.33
2022-12-23T11:27:08.038Z,2.30
2022-12-23T11:29:37.507Z,2.27
2022-12-23T11:32:16.981Z,2.10
2022-12-23T11:34:46.979Z,1.70
2022-12-23T11:37:25.869Z,1.87
2022-12-23T11:39:54.585Z,1.57
2022-12-23T11:42:27.248Z,1.40
2022-12-23T11:44:56.667Z,1.30
2022-12-23T11:47:29.179Z,1.97
2022-12-23T11:49:58.605Z,2.37
2022-12-23T11:52:28.844Z,2.00
2022-12-23T11:54:58.322Z,1.60
2022-12-23T11:57:32.469Z,1.40
2022-12-23T12:00:03.350Z,1.63
2022-12-23T12:02:37.037Z,1.67
2022-12-23T12:05:08.452Z,1.90
2022-12-23T12:07:37.701Z,1.90
2022-12-23T12:10:06.932Z,1.50
2022-12-23T12:12:35.491Z,2.13
2022-12-23T12:15:04.145Z,1.97
2022-12-23T12:17:36.871Z,2.03
2022-12-23T12:20:07.737Z,2.30
2022-12-23T12:22:39.644Z,1.97
2022-12-23T12:25:16.136Z,2.10
2022-12-23T12:27:46.137Z,1.30
2022-12-23T12:30:17.393Z,0.70
2022-12-23T12:32:50.960Z,0.93
2022-12-23T12:35:21.608Z,0.93
2022-12-23T12:37:52.941Z,0.70
2022-12-23T12:40:27.866Z,1.00
2022-12-23T12:42:58.734Z,0.90
2022-12-23T12:45:29.912Z,0.80
2022-12-23T12:48:16.015Z,0.77
2022-12-23T12:50:52.499Z,0.93
2022-12-23T12:53:23.302Z,1.00
2022-12-23T12:55:54.608Z,0.90
2022-12-23T12:58:25.584Z,0.53
2022-12-23T13:00:59.030Z,0.70
2022-12-23T13:03:35.093Z,0.70
2022-12-23T13:06:11.684Z,0.63
2022-12-23T13:08:46.896Z,0.70
2022-12-23T13:11:17.765Z,0.80
2022-12-23T13:13:52.163Z,0.77
2022-12-23T13:16:27.304Z,0.70
2022-12-23T13:19:00.572Z,0.87
2022-12-23T13:21:32.682Z,1.00
2022-12-23T13:24:04.541Z,1.10
2022-12-23T13:26:38.419Z,1.00
2022-12-23T13:29:21.454Z,0.80
2022-12-23T13:31:51.929Z,1.07
2022-12-23T13:34:30.413Z,1.20
2022-12-23T13:37:00.973Z,1.20
2022-12-23T13:39:35.137Z,0.80
2022-12-23T13:42:06.187Z,0.90
2022-12-23T13:44:35.996Z,1.10
2022-12-23T13:47:09.078Z,1.10
2022-12-23T13:49:45.456Z,1.00
2022-12-23T13:52:16.710Z,1.10
2022-12-23T13:54:51.515Z,1.00
2022-12-23T13:57:26.129Z,1.00
2022-12-23T14:00:04.948Z,1.00
2022-12-23T14:02:43.555Z,1.10
2022-12-23T14:05:33.475Z,1.00
2022-12-23T14:08:03.210Z,1.00
2022-12-23T14:10:32.441Z,1.10
2022-12-23T14:13:03.657Z,1.00
2022-12-23T14:15:46.821Z,1.10
2022-12-23T14:18:19.979Z,1.00
2022-12-23T14:20:52.115Z,1.00
2022-12-23T14:23:29.564Z,0.90
2022-12-23T14:26:22.059Z,0.90
2022-12-23T14:29:08.407Z,1.00
2022-12-23T14:31:39.895Z,0.90
2022-12-23T14:34:24.686Z,1.10
2022-12-23T14:37:11.679Z,0.90
2022-12-23T14:39:41.587Z,0.90
2022-12-23T14:42:14.963Z,0.90
2022-12-23T14:44:52.680Z,0.90
2022-12-23T14:47:31.742Z,0.90
2022-12-23T14:50:33.849Z,0.83
2022-12-23T14:53:02.841Z,1.00
2022-12-23T14:55:55.285Z,0.90
2022-12-23T14:58:32.998Z,0.70
2022-12-23T15:01:03.249Z,0.93
2022-12-23T15:03:34.574Z,1.00
2022-12-23T15:06:06.237Z,0.93
2022-12-23T15:08:37.244Z,1.10
2022-12-23T15:11:06.147Z,1.10
2022-12-23T15:13:36.661Z,1.20
2022-12-23T15:16:05.620Z,1.00
2022-12-23T15:18:34.212Z,1.10
2022-12-23T15:21:03.879Z,1.17
2022-12-23T15:23:33.308Z,1.20
2022-12-23T15:26:02.237Z,1.40
2022-12-23T15:28:36.266Z,1.00
2022-12-23T15:31:07.515Z,1.30
2022-12-23T15:34:02.958Z,1.00
2022-12-23T15:36:30.595Z,1.30
2022-12-23T15:39:00.336Z,1.00
2022-12-23T15:41:29.601Z,1.10
2022-12-23T15:44:01.446Z,0.90
2022-12-23T15:46:33.423Z,1.10
2022-12-23T15:49:02.467Z,1.20
2022-12-23T15:54:25.752Z,1.10
2022-12-23T15:56:55.389Z,1.20
2022-12-23T15:59:25.990Z,1.30
2022-12-23T16:01:56.197Z,1.60
2022-12-23T16:04:27.478Z,1.57
2022-12-23T16:06:56.457Z,1.77
2022-12-23T16:09:28.425Z,1.30
2022-12-23T16:11:58.744Z,1.33
2022-12-23T16:14:34.703Z,2.70
2022-12-23T16:17:14.415Z,3.20
2022-12-23T16:19:44.505Z,2.60
2022-12-23T16:22:16.049Z,2.73
2022-12-23T16:24:48.445Z,2.00
2022-12-23T16:27:18.470Z,2.03
2022-12-23T16:29:48.407Z,1.90
2022-12-23T16:32:19.394Z,1.77
2022-12-23T16:34:50.476Z,2.00
2022-12-23T16:37:19.129Z,2.33
2022-12-23T16:39:47.691Z,2.47
2022-12-23T16:42:16.262Z,2.57
2022-12-23T16:44:44.855Z,2.43
2022-12-23T16:47:17.185Z,2.07
2022-12-23T16:49:47.147Z,2.47
2022-12-23T16:52:16.282Z,1.97
2022-12-23T16:54:44.827Z,2.07
2022-12-23T16:57:13.365Z,2.60
2022-12-23T16:59:42.005Z,2.67
2022-12-23T17:02:16.538Z,2.57
2022-12-23T17:04:46.468Z,2.37
2022-12-23T17:07:15.093Z,2.47
2022-12-23T17:09:43.682Z,3.43
2022-12-23T17:12:12.651Z,2.60
2022-12-23T17:14:41.189Z,3.40
2022-12-23T17:17:14.705Z,2.97
2022-12-23T17:19:43.289Z,3.17
2022-12-23T17:22:15.012Z,3.83
2022-12-23T17:24:43.558Z,3.20
2022-12-23T17:27:14.460Z,3.83
2022-12-23T17:29:43.093Z,3.67
2022-12-23T17:32:13.162Z,2.90
2022-12-23T17:34:42.007Z,3.53
2022-12-23T17:37:15.954Z,3.43
2022-12-23T17:39:45.358Z,3.23
2022-12-23T17:42:20.268Z,3.10
2022-12-23T17:44:53.628Z,3.20
2022-12-23T17:47:23.214Z,2.87
2022-12-23T17:49:51.931Z,3.07
2022-12-23T17:52:24.809Z,3.23
2022-12-23T17:54:53.427Z,2.70
2022-12-23T17:57:23.198Z,3.07
2022-12-23T17:59:52.557Z,3.03
2022-12-23T18:02:25.266Z,3.27
2022-12-23T18:04:54.532Z,3.20
2022-12-23T18:07:24.460Z,2.90
2022-12-23T18:09:53.215Z,3.07
2022-12-23T18:12:25.185Z,2.83
2022-12-23T18:14:53.954Z,3.47
2022-12-23T18:17:22.483Z,2.90
2022-12-23T18:19:51.070Z,2.80
2022-12-23T18:22:21.235Z,3.17
2022-12-23T18:24:57.011Z,2.97
2022-12-23T18:27:27.659Z,3.10
2022-12-23T18:29:56.251Z,2.83
2022-12-23T18:32:25.834Z,2.83
2022-12-23T18:34:55.140Z,3.30
2022-12-23T18:37:24.036Z,3.80
2022-12-23T18:39:53.918Z,3.47
2022-12-23T18:42:22.514Z,3.40
2022-12-23T18:44:51.119Z,3.40
2022-12-23T18:47:19.695Z,3.80
2022-12-23T18:49:48.254Z,3.30
2022-12-23T18:52:16.876Z,3.30
2022-12-23T18:54:45.472Z,3.10
2022-12-23T18:57:15.360Z,2.97
2022-12-23T18:59:43.915Z,3.57
2022-12-23T19:02:15.227Z,3.80
2022-12-23T19:04:43.881Z,3.50
2022-12-23T19:07:13.175Z,3.47
2022-12-23T19:09:41.823Z,3.23
2022-12-23T19:12:10.380Z,3.23
2022-12-23T19:14:41.725Z,3.30
2022-12-23T19:17:10.302Z,3.60
2022-12-23T19:19:38.893Z,3.07
2022-12-23T19:22:08.493Z,3.70
2022-12-23T19:24:42.500Z,3.27
2022-12-23T19:27:20.499Z,2.93
2022-12-23T19:29:50.434Z,3.13
2022-12-23T19:32:19.031Z,3.67
2022-12-23T19:34:48.226Z,3.33
2022-12-23T19:37:17.076Z,3.03
2022-12-23T19:39:45.630Z,3.37
2022-12-23T19:42:14.245Z,3.87
2022-12-23T19:44:42.824Z,3.27
2022-12-23T19:47:12.754Z,2.93
2022-12-23T19:49:41.329Z,2.93
2022-12-23T19:52:09.904Z,3.20
2022-12-23T19:54:38.582Z,3.03
2022-12-23T19:57:07.166Z,3.00
2022-12-23T19:59:35.723Z,3.10
2022-12-23T20:02:04.384Z,2.67
2022-12-23T20:04:34.297Z,3.00
2022-12-23T20:07:02.849Z,3.40
2022-12-23T20:09:32.027Z,2.83
2022-12-23T20:12:00.706Z,3.23
2022-12-23T20:14:33.753Z,2.83
2022-12-23T20:17:03.367Z,3.27
2022-12-23T20:19:31.967Z,2.53
2022-12-23T20:22:01.871Z,2.30
2022-12-23T20:24:33.100Z,2.77
2022-12-23T20:27:02.181Z,2.93
2022-12-23T20:29:32.513Z,3.40
2022-12-23T20:32:01.107Z,2.93
2022-12-23T20:34:33.337Z,2.80
2022-12-23T20:37:08.482Z,3.07
2022-12-23T20:39:37.097Z,2.43
2022-12-23T20:42:05.901Z,4.20
2022-12-23T20:44:36.660Z,2.60
2022-12-23T20:47:06.444Z,2.87
2022-12-23T20:49:35.174Z,2.87
2022-12-23T20:52:03.738Z,3.30
2022-12-23T20:54:34.155Z,3.03
2022-12-23T20:57:03.874Z,3.10
2022-12-23T20:59:33.099Z,3.23
2022-12-23T21:02:02.323Z,3.33
2022-12-23T21:04:31.015Z,2.50
2022-12-23T21:06:59.554Z,2.87
2022-12-23T21:09:28.134Z,3.67
2022-12-23T21:11:58.122Z,2.83
2022-12-23T21:14:26.695Z,2.17
2022-12-23T21:16:55.552Z,2.80
2022-12-23T21:19:25.801Z,2.80
2022-12-23T21:21:54.663Z,2.70
2022-12-23T21:24:23.330Z,2.73
2022-12-23T21:26:56.364Z,3.20
2022-12-23T21:29:27.315Z,2.50
2022-12-23T21:31:56.059Z,2.70
2022-12-23T21:34:24.889Z,2.80
2022-12-23T21:36:53.577Z,3.10
2022-12-23T21:39:22.308Z,2.77
2022-12-23T21:41:52.582Z,2.93
2022-12-23T21:44:21.168Z,3.07
2022-12-23T21:46:52.267Z,3.63
2022-12-23T21:49:21.150Z,3.37
2022-12-23T21:51:49.819Z,3.33
2022-12-23T21:54:18.372Z,3.40
2022-12-23T21:56:46.929Z,2.60
2022-12-23T21:59:16.188Z,2.83
2022-12-23T22:01:45.205Z,3.07
2022-12-23T22:04:15.172Z,3.67
2022-12-23T22:06:44.517Z,3.40
2022-12-23T22:09:14.498Z,3.17
2022-12-23T22:11:43.166Z,2.63
2022-12-23T22:14:13.259Z,3.27
2022-12-23T22:16:42.089Z,3.60
2022-12-23T22:19:11.031Z,3.70
2022-12-23T22:21:42.408Z,2.83
2022-12-23T22:24:11.200Z,2.83
2022-12-23T22:26:40.946Z,3.20
2022-12-23T22:29:09.571Z,3.17
2022-12-23T22:31:39.676Z,3.20
2022-12-23T22:34:09.073Z,3.77
2022-12-23T22:36:37.962Z,3.97
2022-12-23T22:39:08.279Z,3.40
2022-12-23T22:41:36.962Z,3.70
2022-12-23T22:44:05.577Z,3.57
2022-12-23T22:46:34.437Z,3.93
2022-12-23T22:49:03.302Z,3.60
2022-12-23T22:51:32.438Z,3.33
2022-12-23T22:54:03.358Z,3.60
2022-12-23T22:56:33.280Z,3.53
2022-12-23T22:59:01.829Z,3.53
2022-12-23T23:01:31.882Z,3.67
2022-12-23T23:04:01.347Z,2.57
2022-12-23T23:06:30.964Z,3.00
2022-12-23T23:09:00.107Z,4.13
2022-12-23T23:11:29.340Z,3.20
2022-12-23T23:13:59.613Z,3.47
2022-12-23T23:16:28.347Z,4.00
2022-12-23T23:18:58.570Z,3.40
2022-12-23T23:21:27.699Z,3.93
2022-12-23T23:23:56.309Z,3.73
2022-12-23T23:26:26.812Z,3.03
2022-12-23T23:28:55.654Z,3.50
2022-12-23T23:31:46.144Z,3.80
2022-12-23T23:34:14.278Z,4.23
2022-12-23T23:36:43.119Z,4.37
2022-12-23T23:39:13.154Z,3.47
2022-12-23T23:41:41.931Z,3.07
2022-12-23T23:44:10.847Z,4.03
2022-12-23T23:46:41.238Z,3.67
2022-12-23T23:49:09.824Z,3.27
2022-12-23T23:51:38.520Z,3.87
2022-12-23T23:54:07.140Z,3.27
2022-12-23T23:56:38.569Z,3.07
2022-12-23T23:59:08.615Z,3.20
